Metar Report
Metar
METAR KN23 180356Z AUTO 00000KT 10SM CLR M06/M06 A3004 A02 45
METAR KN23 180256Z AUTO 00000KT 10SM CLR M04/M05 A3005 A02 44
METAR KN23 180156Z AUTO 00000KT 10SM CLR M04/M06 A3005 A02 43
METAR KN23 180056Z AUTO 00000KT 10SM CLR M03/M05 A3009 A02 42
METAR KN23 172356Z AUTO 29003KT 10SM CLR M03/M07 A3012 A02 41
METAR KN23 172256Z AUTO 00000KT 10SM CLR M02/M06 A3011 A02 40
METAR KN23 172156Z AUTO 27003KT 10SM CLR 00/M07 A3012 A02 39
METAR KN23 172056Z AUTO 30006KT 10SM CLR 02/M08 A3013 A02 38
METAR KN23 171956Z AUTO 26007KT 10SM CLR 03/M06 A3012 A02 37
METAR KN23 171856Z AUTO 30010G14KT 10SM CLR 03/M06 A3011 A02 36
METAR KN23 171756Z AUTO 29008G14KT 10SM CLR 02/M06 A3011 A02 35
METAR KN23 171656Z AUTO 29008G16KT 250V310 10SM CLR 02/M05 A3012 A02 34
METAR KN23 171556Z AUTO 29010G14KT 240V310 10SM BKN026 00/M05 A3014 A02 33
METAR KN23 171456Z AUTO 32009G20KT 10SM BKN023 BKN028 00/M04 A3015 A02 32
METAR KN23 171356Z AUTO 31004KT 10SM OVC024 00/M03 A3013 A02 31
METAR KN23 171256Z AUTO 30006KT 270V330 10SM OVC020 00/M02 A3012 A02 30
METAR KN23 171156Z AUTO 30009G21KT 10SM OVC020 00/M02 A3010 A02 29
METAR KN23 171056Z AUTO 31006G15KT 10SM -DZ OVC020 00/M02 A3008 A02 28
METAR KN23 170956Z AUTO 32008G18KT 260V340 10SM OVC026 00/M03 A3006 A02 27
METAR KN23 170856Z AUTO 31009KT 10SM OVC022 00/M03 A3003 A02 26
METAR KN23 170756Z AUTO 31011G17KT 10SM BKN025 BKN031 OVC039 00/M03 A3001 A02 25
METAR KN23 170656Z AUTO 30008G14KT 270V330 10SM -RA OVC023 01/M02 A2998 A02 24
METAR KN23 170556Z AUTO 29010G17KT 10SM BKN023 OVC028 02/M01 A2996 A02 23
METAR KN23 170456Z AUTO 28006G16KT 10SM -RA SCT019 BKN026 OVC039 02/01 A2995 A02 22
METAR KN23 170356Z AUTO 28008G15KT 10SM SCT019 BKN026 OVC033 02/00 A2992 A02 21
METAR KN23 170256Z AUTO 31012G20KT 10SM SCT024 BKN030 OVC036 03/00 A2990 A02 20
METAR KN23 170156Z AUTO 28009KT 10SM BKN022 OVC027 03/01 A2988 A02 19
METAR KN23 170056Z AUTO 29010G17KT 10SM SCT026 SCT032 OVC075 03/01 A2987 A02 18
METAR KN23 162356Z AUTO 29009G17KT 250V310 10SM BKN023 OVC029 03/01 A2986 A02 17
METAR KN23 162256Z AUTO 28007G17KT 7SM -DZ BKN023 BKN030 OVC037 04/01 A2982 A02 16
METAR KN23 162156Z AUTO 27007KT 10SM SCT024 BKN060 OVC100 04/02 A2981 A02 15
METAR KN23 162056Z AUTO 28005KT 10SM SCT024 BKN033 OVC070 05/03 A2978 A02 14
METAR KN23 161956Z AUTO 27004KT 10SM -RA SCT022 BKN028 OVC049 05/03 A2977 A02 13
METAR KN23 161856Z AUTO 21003KT 10SM SCT038 SCT047 OVC055 04/03 A2977 A02 P0001 12
METAR KN23 161756Z AUTO 25006G15KT 7SM -DZ SCT025 BKN033 OVC060 07/04 A2973 A02 11
METAR KN23 161656Z AUTO 28008KT 10SM SCT039 SCT045 BKN090 09/04 A2973 A02 10
METAR KN23 161556Z AUTO 23005KT 10SM SCT025 BKN037 OVC055 08/07 A2977 A02 9
METAR KN23 161456Z AUTO 23004KT 4SM -RA SCT019 BKN025 OVC050 06/06 A2978 A02 P0002 8
METAR KN23 161356Z AUTO 21004KT 10SM DZ OVC022 07/04 A2978 A02 7
METAR KN23 161256Z AUTO 23005KT 10SM SCT022 OVC028 07/05 A2979 A02 6
METAR KN23 161156Z AUTO 00000KT 10SM SCT025 BKN035 OVC075 06/04 A2979 A02 5
METAR KN23 161056Z AUTO 23007KT 10SM OVC020 07/06 A2980 A02 4
METAR KN23 160956Z AUTO 25003KT 10SM -DZ SCT016 BKN026 OVC032 06/05 A2981 A02 P0002 3
METAR KN23 160856Z AUTO 00000KT 7SM -RA SCT019 BKN026 OVC032 05/04 A2983 A02 P0001 2
METAR KN23 160756Z AUTO 18004KT 10SM RA BKN035 BKN043 OVC050 06/03 A2985 A02 1
METAR KN23 160656Z AUTO 21007KT 10SM -DZ SCT048 SCT060 OVC065 05/03 A2987 A02 0
METAR KN23 160556Z AUTO 23003KT 10SM SCT024 BKN030 OVC100 04/02 A2990 A02 69
METAR KN23 160456Z AUTO 18007KT 140V220 10SM BKN024 BKN030 OVC039 04/01 A2994 A02 68
METAR KN23 160356Z AUTO 17006KT 10SM BKN037 04/00 A2994 A02 67
METAR KN23 160256Z AUTO 19005G14KT 10SM SCT037 04/M01 A2997 A02 66
METAR KN23 160156Z AUTO 20005KT 10SM OVC032 04/M02 A2999 A02 65
METAR KN23 160056Z AUTO 00000KT 10SM SCT036 04/M02 A3002 A02 64
METAR KN23 152356Z AUTO 25004KT 10SM CLR 04/M02 A3002 A02 63
METAR KN23 152256Z AUTO 11004KT 10SM CLR 03/M02 A3004 A02 62
METAR KN23 152156Z AUTO 00000KT 10SM CLR 04/M03 A3004 A02 61
METAR KN23 152056Z AUTO 00000KT 10SM CLR 04/M03 A3006 A02 60
METAR KN23 151956Z AUTO 18005KT 10SM CLR 05/M03 A3010 A02 59
METAR KN23 151856Z AUTO 15003KT 10SM CLR 04/M02 A3013 A02 58
METAR KN23 151756Z AUTO 17008KT 10SM CLR 04/M02 A3015 A02 57
METAR KN23 151656Z AUTO 22006KT 10SM OVC015 03/M01 A3019 A02 56
METAR KN23 151556Z AUTO 00000KT 10SM OVC011 01/01 A3023 A02 55
METAR KN23 151456Z AUTO 00000KT 4SM OVC009 M01/M01 A3024 A02 54
METAR KN23 151356Z AUTO 00000KT 3SM BR OVC001 M03/M03 A3026 A02 53
METAR KN23 151256Z AUTO 00000KT 3/4SM BR OVC001 M03/M03 A3029 A02 52
METAR KN23 151156Z AUTO 00000KT 1 1/2SM BR OVC003 M03/M03 A3028 A02 51
METAR KN23 151056Z AUTO 00000KT 1/4SM FZFG OVC003 M03/M03 A3028 A02 50
METAR KN23 150956Z AUTO 00000KT 7SM BR SCT003 M04/M04 A3028 A02 49
METAR KN23 150856Z AUTO 00000KT 4SM BR CLR M03/M03 A3029 A02 48
METAR KN23 150756Z AUTO 00000KT 5SM BR CLR M03/M03 A3028 A02 47
METAR KN23 150656Z AUTO 00000KT 7SM CLR M03/M03 A3028 A02 46